Main page
METAR-TAF:

METAR-TAF

Airports :

St. Moritz, Switzerland

Samedan Airport

latitude: 46-32-03N, longitude: 9-53-03E, elevation: 1707 m

Current weather observation

The report was made 35 minutes ago, at 18:50 UTC
Wind 8 kt from the South/Southeast, varying between East/Southeast and South
Temperature 7°C
Humidity 76%
Pressure 1020 hPa
Visibility 10 km or more

METAR: LSZS 211850Z AUTO 15008KT 120V180 9999 NCD 07/03 Q1020

Time: 21:25 (19:25 UTC)

Forecast

The report was made 5 hours and 0 minutes ago, at 14:25 UTC
Forecast valid from 21 at 15 UTC to 21 at 24 UTC
Wind 10 kt from the Southwest
Visibility 10 km or more
no clouds below 1500 m and no cumulonimbus
Becoming
from 21 at 17 UTC to 21 at 20 UTC
Few clouds at a height of 1500 ft
Scattered clouds at a height of 10000 ft
Broken clouds at a height of 25000 ft

TAF: LSZS 211425Z 2115/2124 22010KT CAVOK TX12/2115Z BECMG 2117/2120 FEW015 SCT100 BKN250

Weather observations and forecasts of more than 4000 airports (METAR and TAF reports).

The available stations are represented by yellow and red dots on the map.

Hover mouse over dot to see the name of the station.

Then click to see weather observations and forecasts.

To change the map : click on the green buttons with a black cross to zoom in, on the green button with a dash to zoom out, or on the green arrows for adjacent maps.


METAR-TAF: